Time;durP1;ratioP1;P1;durP2;ratioP2;P2;SDS_P1;SDS_P2;PMS_P1;PMS_P2;Temp;Humidity;BMP_temperature;BMP_pressure;BME280_temperature;BME280_humidity;BME280_pressure;Samples;Min_cycle;Max_cycle;Signal;HPM_P1;HPM_P2
2022/04/09 00:01:02;;;;;;;1.00;0.50;;;5.70;54.30;;;;;;2664306;51;20927;-85
2022/04/09 00:03:28;;;;;;;1.10;0.55;;;5.70;54.30;;;;;;2388157;52;20982;-86
2022/04/09 00:05:54;;;;;;;0.77;0.55;;;5.70;54.40;;;;;;2662749;52;20895;-86
2022/04/09 00:08:20;;;;;;;0.80;0.50;;;5.70;54.50;;;;;;2638890;51;20918;-85
2022/04/09 00:10:47;;;;;;;1.40;0.70;;;5.70;54.60;;;;;;2403982;52;20856;-86
2022/04/09 00:13:13;;;;;;;1.10;0.62;;;5.60;54.60;;;;;;2669294;51;20907;-86
2022/04/09 00:15:40;;;;;;;1.05;0.55;;;5.60;54.60;;;;;;2669442;52;20990;-86
2022/04/09 00:18:06;;;;;;;1.02;0.60;;;5.60;54.60;;;;;;2667313;52;20871;-85
2022/04/09 00:20:33;;;;;;;1.33;0.70;;;5.60;54.70;;;;;;2409003;53;20890;-87
2022/04/09 00:22:59;;;;;;;1.10;0.50;;;5.60;54.60;;;;;;2412708;52;20859;-86
2022/04/09 00:25:25;;;;;;;1.08;0.60;;;5.60;54.70;;;;;;2652232;51;20899;-86
2022/04/09 00:27:52;;;;;;;1.20;0.65;;;5.60;54.80;;;;;;2643611;51;20892;-86
2022/04/09 00:30:18;;;;;;;1.12;0.50;;;5.60;55.00;;;;;;2647314;51;20976;-86
2022/04/09 00:32:44;;;;;;;2.03;0.60;;;5.60;55.10;;;;;;2665626;52;21578;-87
2022/04/09 00:35:10;;;;;;;1.15;0.50;;;5.60;55.20;;;;;;2408440;52;20920;-87
2022/04/09 00:37:43;;;;;;;1.17;0.60;;;5.60;55.30;;;;;;2669333;52;20943;-87
2022/04/09 00:40:19;;;;;;;1.17;0.55;;;5.60;55.50;;;;;;2409174;52;20904;-87
2022/04/09 00:42:46;;;;;;;1.20;0.70;;;5.60;55.30;;;;;;2408947;52;21608;-86
2022/04/09 00:45:12;;;;;;;1.50;0.70;;;5.60;55.20;;;;;;2408812;52;21908;-87
2022/04/09 00:47:39;;;;;;;0.95;0.50;;;5.70;55.40;;;;;;2661916;51;22041;-87
2022/04/09 00:50:06;;;;;;;1.50;0.60;;;5.70;55.40;;;;;;2648236;51;21465;-87
2022/04/09 00:52:33;;;;;;;1.40;0.60;;;5.70;55.50;;;;;;2640897;51;20931;-87
2022/04/09 00:55:01;;;;;;;1.30;0.60;;;5.70;55.50;;;;;;2409129;53;20875;-87
2022/04/09 00:57:27;;;;;;;1.33;0.62;;;5.70;55.60;;;;;;2668367;52;20931;-87
2022/04/09 00:59:53;;;;;;;0.95;0.50;;;5.70;55.60;;;;;;2668204;52;21703;-86
2022/04/09 01:02:19;;;;;;;1.02;0.60;;;5.70;55.60;;;;;;2407895;52;20875;-87
2022/04/09 01:04:46;;;;;;;1.65;0.60;;;5.80;55.70;;;;;;2667337;52;20911;-87
2022/04/09 01:07:13;;;;;;;1.17;0.50;;;5.70;55.70;;;;;;2638707;51;21499;-87
2022/04/09 01:09:39;;;;;;;0.90;0.50;;;5.80;55.90;;;;;;2400874;53;20910;-87
2022/04/09 01:12:06;;;;;;;0.90;0.50;;;5.80;55.90;;;;;;2654350;51;20883;-87
2022/04/09 01:14:34;;;;;;;0.73;0.40;;;5.80;56.00;;;;;;2667564;52;20907;-87
2022/04/09 01:17:01;;;;;;;0.80;0.50;;;5.80;56.00;;;;;;2668166;52;20919;-86
2022/04/09 01:19:27;;;;;;;0.90;0.50;;;5.90;56.10;;;;;;2667656;52;20883;-88
2022/04/09 01:22:00;;;;;;;1.12;0.60;;;5.90;56.10;;;;;;2408499;52;21950;-87
2022/04/09 01:24:26;;;;;;;1.02;0.60;;;5.90;56.10;;;;;;2408456;53;20923;-87
2022/04/09 01:26:52;;;;;;;1.23;0.60;;;6.00;56.20;;;;;;2669509;52;20895;-87
2022/04/09 01:29:19;;;;;;;1.58;0.73;;;6.00;56.20;;;;;;2387350;52;20882;-87
2022/04/09 01:31:45;;;;;;;1.60;0.70;;;6.00;56.20;;;;;;2667768;52;20890;-86
2022/04/09 01:34:13;;;;;;;1.55;0.70;;;6.10;56.30;;;;;;2668721;52;20879;-87
2022/04/09 01:36:39;;;;;;;1.02;0.50;;;6.10;56.30;;;;;;2667903;52;20918;-88
2022/04/09 01:39:05;;;;;;;1.50;0.68;;;6.10;56.20;;;;;;2669187;52;20934;-87
2022/04/09 01:41:32;;;;;;;1.12;0.60;;;6.10;56.30;;;;;;2666720;52;20860;-85
2022/04/09 01:43:58;;;;;;;1.15;0.60;;;6.20;56.40;;;;;;2669083;52;20994;-86
2022/04/09 01:46:24;;;;;;;1.12;0.65;;;6.20;56.40;;;;;;2670264;52;20998;-86
2022/04/09 01:48:51;;;;;;;1.83;0.80;;;6.20;56.40;;;;;;2669827;52;20919;-86
2022/04/09 01:51:17;;;;;;;1.83;0.80;;;6.30;56.40;;;;;;2669953;52;20867;-87
2022/04/09 01:53:44;;;;;;;1.65;0.80;;;6.30;56.50;;;;;;2395482;52;20942;-87
2022/04/09 01:56:10;;;;;;;1.23;0.70;;;6.30;56.50;;;;;;2403737;52;20935;-85
2022/04/09 01:58:36;;;;;;;1.37;0.70;;;6.40;56.40;;;;;;2656901;52;20950;-86
2022/04/09 02:01:02;;;;;;;2.20;0.90;;;6.40;56.40;;;;;;2653267;51;20965;-86
2022/04/09 02:03:29;;;;;;;1.40;0.70;;;6.40;56.40;;;;;;2408002;52;22114;-86
2022/04/09 02:05:56;;;;;;;1.62;0.70;;;6.40;56.40;;;;;;2407032;52;21770;-89
2022/04/09 02:08:22;;;;;;;1.02;0.60;;;6.40;56.40;;;;;;2387683;52;20889;-87
2022/04/09 02:10:48;;;;;;;1.40;0.75;;;6.40;56.40;;;;;;2668809;52;20912;-87
2022/04/09 02:13:18;;;;;;;2.28;1.10;;;6.50;56.50;;;;;;2668349;52;20996;-86
2022/04/09 02:15:44;;;;;;;2.28;0.93;;;6.50;57.10;;;;;;2668372;51;20931;-85
2022/04/09 02:18:11;;;;;;;1.52;0.73;;;6.50;56.50;;;;;;2668951;52;20923;-86
2022/04/09 02:20:38;;;;;;;1.00;0.60;;;6.50;56.50;;;;;;2668595;52;20871;-86
2022/04/09 02:23:04;;;;;;;1.10;0.60;;;6.50;56.50;;;;;;2668258;52;20915;-86
2022/04/09 02:25:30;;;;;;;1.60;0.80;;;6.50;56.50;;;;;;2639213;51;20942;-86
2022/04/09 02:27:57;;;;;;;1.77;0.80;;;6.50;56.50;;;;;;2407233;52;20899;-85
2022/04/09 02:30:24;;;;;;;1.60;0.88;;;6.50;56.40;;;;;;2669467;51;20912;-86
2022/04/09 02:32:52;;;;;;;1.55;0.73;;;6.50;56.30;;;;;;2409289;52;20883;-86
2022/04/09 02:35:19;;;;;;;1.62;0.70;;;6.50;56.30;;;;;;2670336;52;20906;-86
2022/04/09 02:37:45;;;;;;;2.97;0.70;;;6.50;56.40;;;;;;2407921;52;20950;-87
2022/04/09 02:40:12;;;;;;;1.60;0.70;;;6.50;56.40;;;;;;2647766;51;20863;-86
2022/04/09 02:42:39;;;;;;;1.58;0.80;;;6.50;56.50;;;;;;2670357;52;20876;-87
2022/04/09 02:45:06;;;;;;;1.67;0.88;;;6.60;56.60;;;;;;2669922;52;20883;-86
2022/04/09 02:47:32;;;;;;;1.77;0.70;;;6.60;56.70;;;;;;2669944;52;20930;-86
2022/04/09 02:50:03;;;;;;;2.22;0.88;;;6.60;56.80;;;;;;2645411;51;20891;-86
2022/04/09 02:52:47;;;;;;;2.50;1.20;;;6.60;56.90;;;;;;2666316;51;21476;-86
2022/04/09 02:55:13;;;;;;;2.12;1.05;;;6.60;57.00;;;;;;2390881;52;22474;-85
2022/04/09 02:57:40;;;;;;;1.70;0.90;;;6.60;56.80;;;;;;2667297;52;21006;-86
2022/04/09 03:00:11;;;;;;;2.00;0.90;;;6.70;56.80;;;;;;2669903;52;20883;-86
2022/04/09 03:02:38;;;;;;;2.05;1.00;;;6.70;56.70;;;;;;2650603;51;20895;-86
2022/04/09 03:05:05;;;;;;;2.03;0.90;;;6.70;56.70;;;;;;2664855;51;20891;-87
2022/04/09 03:07:31;;;;;;;2.20;1.00;;;6.70;56.70;;;;;;2409710;52;21934;-86
2022/04/09 03:09:58;;;;;;;3.50;1.05;;;6.70;56.70;;;;;;2639968;51;20890;-86
2022/04/09 03:12:24;;;;;;;2.15;1.00;;;6.70;56.70;;;;;;2669981;52;20987;-86
2022/04/09 03:14:50;;;;;;;1.90;0.88;;;6.70;56.70;;;;;;2670112;52;20889;-86
2022/04/09 03:17:17;;;;;;;1.90;0.85;;;6.70;56.80;;;;;;2670212;52;20816;-87
2022/04/09 03:19:43;;;;;;;1.83;0.90;;;6.70;56.80;;;;;;2670067;52;21877;-85
2022/04/09 03:22:10;;;;;;;1.70;0.80;;;6.70;56.80;;;;;;2669712;52;20927;-85
2022/04/09 03:24:36;;;;;;;2.37;0.80;;;6.70;56.80;;;;;;2670431;52;20935;-86
2022/04/09 03:27:03;;;;;;;1.08;0.60;;;6.70;56.90;;;;;;2646228;51;20910;-86
2022/04/09 03:29:29;;;;;;;1.77;0.70;;;6.70;56.90;;;;;;2665586;51;22004;-87
2022/04/09 03:31:57;;;;;;;1.67;0.80;;;6.70;56.90;;;;;;2662168;51;20939;-87
2022/04/09 03:34:23;;;;;;;1.65;0.65;;;6.70;56.80;;;;;;2670476;51;21026;-86
2022/04/09 03:36:50;;;;;;;1.90;0.88;;;6.70;56.80;;;;;;2410548;52;20813;-85
2022/04/09 03:39:16;;;;;;;1.90;0.80;;;6.70;56.90;;;;;;2670442;52;20895;-87
2022/04/09 03:41:42;;;;;;;1.80;0.82;;;6.70;56.90;;;;;;2669693;52;21636;-86
2022/04/09 03:44:09;;;;;;;3.22;0.90;;;6.80;57.00;;;;;;2642309;51;20966;-86
2022/04/09 03:46:36;;;;;;;2.20;1.10;;;6.80;57.00;;;;;;2404055;52;20966;-86
2022/04/09 03:49:02;;;;;;;1.62;0.70;;;6.80;57.10;;;;;;2667293;52;21010;-87
2022/04/09 03:51:29;;;;;;;2.20;1.10;;;6.80;57.10;;;;;;2399149;52;20949;-87
2022/04/09 03:53:55;;;;;;;1.70;0.80;;;6.80;57.20;;;;;;2653187;51;21635;-86
2022/04/09 03:56:22;;;;;;;1.85;0.80;;;6.80;57.20;;;;;;2402235;52;20856;-87
2022/04/09 03:58:49;;;;;;;3.47;0.93;;;6.80;57.20;;;;;;2408406;52;20947;-86
2022/04/09 04:01:16;;;;;;;1.58;0.68;;;6.80;57.20;;;;;;2661835;52;21519;-86
2022/04/09 04:03:42;;;;;;;1.90;0.80;;;6.90;57.30;;;;;;2638370;51;21943;-87
2022/04/09 04:06:09;;;;;;;1.70;0.75;;;6.90;57.30;;;;;;2408646;52;20931;-86
2022/04/09 04:08:37;;;;;;;2.10;0.77;;;6.90;57.30;;;;;;2383981;52;20962;-87
2022/04/09 04:11:03;;;;;;;1.62;0.90;;;7.00;57.30;;;;;;2650563;51;20922;-86
2022/04/09 04:13:32;;;;;;;1.83;0.90;;;7.00;57.20;;;;;;2652990;51;20921;-87
2022/04/09 04:15:59;;;;;;;2.03;1.00;;;7.00;57.20;;;;;;2406176;53;20942;-86
2022/04/09 04:18:26;;;;;;;1.85;0.80;;;7.00;58.00;;;;;;2407490;52;20856;-85
2022/04/09 04:20:52;;;;;;;3.47;1.08;;;7.00;57.20;;;;;;2668191;52;21026;-86
2022/04/09 04:23:18;;;;;;;1.23;0.70;;;7.00;57.30;;;;;;2668176;52;21186;-87
2022/04/09 04:25:45;;;;;;;2.00;0.90;;;7.00;57.40;;;;;;2407381;52;20892;-86
2022/04/09 04:28:11;;;;;;;2.33;0.80;;;7.00;57.40;;;;;;2407999;52;21632;-86
2022/04/09 04:30:38;;;;;;;2.87;1.00;;;6.90;57.30;;;;;;2408404;52;20915;-87
2022/04/09 04:33:04;;;;;;;1.40;0.70;;;7.10;57.50;;;;;;2407689;52;20974;-86
2022/04/09 04:35:30;;;;;;;1.98;0.80;;;7.10;57.50;;;;;;2407912;52;21001;-87
2022/04/09 04:37:56;;;;;;;1.90;0.90;;;7.10;57.40;;;;;;2407044;53;20891;-86
2022/04/09 04:40:23;;;;;;;1.70;0.85;;;7.10;57.50;;;;;;2407654;52;20892;-85
2022/04/09 04:42:49;;;;;;;2.12;0.93;;;7.10;57.40;;;;;;2656460;52;20919;-86
2022/04/09 04:45:16;;;;;;;2.08;0.98;;;7.20;57.50;;;;;;2641205;51;21034;-86
2022/04/09 04:47:44;;;;;;;2.08;0.80;;;7.20;57.60;;;;;;2668211;52;20963;-86
2022/04/09 04:50:10;;;;;;;1.92;0.95;;;7.20;58.10;;;;;;2409605;52;20915;-86
2022/04/09 04:52:36;;;;;;;2.62;1.00;;;7.20;57.40;;;;;;2399687;52;20962;-85
2022/04/09 04:55:03;;;;;;;2.30;1.23;;;7.20;57.40;;;;;;2618391;52;20933;-86
2022/04/09 04:57:39;;;;;;;3.75;1.27;;;7.20;57.40;;;;;;2644409;51;20864;-86
2022/04/09 05:00:06;;;;;;;2.95;1.33;;;7.20;57.60;;;;;;2410302;52;20895;-87
2022/04/09 05:02:32;;;;;;;2.72;1.10;;;7.20;57.40;;;;;;2640356;51;20820;-86
2022/04/09 05:05:01;;;;;;;2.40;1.20;;;7.30;57.50;;;;;;2668726;51;20983;-87
2022/04/09 05:07:43;;;;;;;1.85;0.98;;;7.30;57.50;;;;;;2670209;52;20891;-86
2022/04/09 05:10:11;;;;;;;;;;;7.30;57.60;;;;;;2660307;51;20902;-90
2022/04/09 05:12:37;;;;;;;3.62;1.60;;;7.30;57.80;;;;;;2397213;52;20560;-87
2022/04/09 05:15:04;;;;;;;2.70;1.35;;;7.30;57.20;;;;;;2664884;52;21021;-87
2022/04/09 05:17:30;;;;;;;2.85;1.30;;;7.30;57.30;;;;;;2389809;52;20946;-86
2022/04/09 05:19:56;;;;;;;2.42;1.15;;;7.30;57.30;;;;;;2409198;52;20883;-85
2022/04/09 05:22:25;;;;;;;2.62;1.23;;;7.30;57.30;;;;;;2669874;52;20879;-87
2022/04/09 05:24:52;;;;;;;2.50;1.25;;;7.20;57.20;;;;;;2645820;51;20875;-86
2022/04/09 05:27:18;;;;;;;2.50;1.40;;;7.20;57.10;;;;;;2665159;51;20931;-86
2022/04/09 05:29:44;;;;;;;3.10;1.73;;;7.20;57.10;;;;;;2411255;53;20967;-86
2022/04/09 05:32:11;;;;;;;3.40;2.00;;;7.20;57.10;;;;;;2647940;51;20947;-88
2022/04/09 05:34:37;;;;;;;3.17;1.75;;;7.20;57.10;;;;;;2402779;52;20808;-85
2022/04/09 05:37:03;;;;;;;3.78;1.80;;;7.20;57.10;;;;;;2669534;52;20911;-87
2022/04/09 05:39:30;;;;;;;2.92;1.40;;;7.10;57.00;;;;;;2668757;52;20898;-86
2022/04/09 05:41:56;;;;;;;3.20;1.55;;;7.10;57.00;;;;;;2669653;52;20947;-87
2022/04/09 05:44:22;;;;;;;3.80;2.28;;;7.10;57.10;;;;;;2646140;51;21336;-86
2022/04/09 05:46:49;;;;;;;5.12;3.65;;;7.10;57.10;;;;;;2663125;51;20911;-87
2022/04/09 05:49:15;;;;;;;6.78;4.35;;;7.10;57.20;;;;;;2670119;51;20880;-87
2022/04/09 05:51:41;;;;;;;8.05;5.32;;;7.10;57.30;;;;;;2669950;52;20895;-86
2022/04/09 05:54:07;;;;;;;6.35;4.70;;;7.10;57.40;;;;;;2408889;53;20887;-87
2022/04/09 05:56:34;;;;;;;4.72;3.60;;;7.10;57.50;;;;;;2669858;52;20943;-86
2022/04/09 05:59:01;;;;;;;4.95;2.70;;;7.10;57.70;;;;;;2408820;53;20879;-87
2022/04/09 06:01:44;;;;;;;3.72;2.10;;;7.00;57.70;;;;;;2670027;52;20938;-86
2022/04/09 06:04:11;;;;;;;3.87;1.92;;;7.20;57.90;;;;;;2409120;52;20827;-86
2022/04/09 06:06:38;;;;;;;3.37;1.75;;;7.20;57.90;;;;;;2668470;52;20880;-86
2022/04/09 06:09:04;;;;;;;3.22;1.80;;;7.20;57.90;;;;;;2664575;52;20907;-86
2022/04/09 06:11:31;;;;;;;3.92;2.15;;;7.30;58.00;;;;;;2390289;52;20959;-87
2022/04/09 06:13:57;;;;;;;3.00;1.70;;;7.30;58.00;;;;;;2387213;52;20884;-87
2022/04/09 06:16:25;;;;;;;3.42;1.90;;;7.40;58.20;;;;;;2646617;51;21630;-85
2022/04/09 06:18:51;;;;;;;4.87;2.22;;;7.40;58.30;;;;;;2662681;51;21257;-86
2022/04/09 06:21:17;;;;;;;4.65;2.50;;;7.50;58.40;;;;;;2669515;52;20902;-85
2022/04/09 06:23:44;;;;;;;4.40;2.58;;;7.50;58.40;;;;;;2403863;52;20816;-85
2022/04/09 06:26:10;;;;;;;4.55;2.00;;;7.60;58.50;;;;;;2648937;51;21846;-87
2022/04/09 06:28:37;;;;;;;3.92;2.37;;;7.60;58.60;;;;;;2663780;51;20934;-86
2022/04/09 06:31:03;;;;;;;4.60;2.78;;;7.70;58.70;;;;;;2643197;51;21263;-88
2022/04/09 06:33:29;;;;;;;4.85;2.90;;;7.80;58.80;;;;;;2660800;51;20915;-86
2022/04/09 06:35:55;;;;;;;5.28;3.00;;;7.90;58.90;;;;;;2402842;52;20816;-87
2022/04/09 06:38:22;;;;;;;4.15;2.65;;;7.90;59.00;;;;;;2396641;52;21574;-89
2022/04/09 06:40:48;;;;;;;4.32;2.70;;;8.00;58.90;;;;;;2658936;51;20879;-86
2022/04/09 06:43:14;;;;;;;5.82;3.20;;;8.10;59.00;;;;;;2409131;52;21889;-87
2022/04/09 06:45:40;;;;;;;5.85;3.50;;;8.20;59.00;;;;;;2670801;52;20880;-87
2022/04/09 06:48:07;;;;;;;4.87;3.20;;;8.30;59.50;;;;;;2639231;51;21927;-86
2022/04/09 06:50:34;;;;;;;4.37;2.90;;;8.50;60.70;;;;;;2410367;52;21617;-87
2022/04/09 06:53:00;;;;;;;4.87;3.12;;;8.90;61.70;;;;;;2670027;52;21894;-87
2022/04/09 06:55:26;;;;;;;5.75;3.05;;;9.20;61.80;;;;;;2670136;51;20789;-86
2022/04/09 06:57:59;;;;;;;4.55;2.60;;;9.50;62.10;;;;;;2669729;52;20887;-86
2022/04/09 07:00:25;;;;;;;4.10;2.72;;;9.80;60.90;;;;;;2670118;52;22297;-87
2022/04/09 07:02:52;;;;;;;4.80;3.15;;;9.90;60.10;;;;;;2409147;52;20912;-86
2022/04/09 07:05:18;;;;;;;4.20;2.85;;;10.10;58.80;;;;;;2670091;52;20912;-87
2022/04/09 07:07:48;;;;;;;4.35;2.67;;;10.20;58.80;;;;;;2409368;53;20891;-87
2022/04/09 07:10:15;;;;;;;5.05;2.85;;;10.40;58.30;;;;;;2409434;52;20907;-86
2022/04/09 07:12:41;;;;;;;4.25;2.78;;;10.40;58.00;;;;;;2669514;51;21810;-86
2022/04/09 07:15:08;;;;;;;4.55;2.83;;;10.50;58.20;;;;;;2669858;52;20982;-88
2022/04/09 07:17:35;;;;;;;5.82;3.58;;;10.70;58.70;;;;;;2670068;52;20911;-87
2022/04/09 07:20:04;;;;;;;4.65;3.20;;;10.80;58.40;;;;;;2640015;52;20959;-87
2022/04/09 07:22:31;;;;;;;5.12;3.33;;;10.90;57.90;;;;;;2669757;52;20863;-86
2022/04/09 07:24:57;;;;;;;4.70;2.92;;;10.90;57.40;;;;;;2409348;52;20899;-87
2022/04/09 07:27:38;;;;;;;5.82;2.97;;;10.90;57.00;;;;;;2669546;52;20934;-87
2022/04/09 07:30:18;;;;;;;4.70;2.72;;;10.90;56.70;;;;;;2668060;52;20851;-86
2022/04/09 07:32:45;;;;;;;4.87;2.92;;;10.90;56.60;;;;;;2668235;52;20915;-86
2022/04/09 07:35:11;;;;;;;5.40;3.30;;;10.80;56.60;;;;;;2407600;53;20891;-85
2022/04/09 07:37:49;;;;;;;4.78;2.72;;;10.90;56.50;;;;;;2407817;52;21823;-86
2022/04/09 07:40:17;;;;;;;5.28;2.80;;;10.80;56.00;;;;;;2638664;51;21928;-85
2022/04/09 07:42:44;;;;;;;4.85;2.70;;;10.70;55.80;;;;;;2409644;52;20983;-85
2022/04/09 07:45:10;;;;;;;5.03;2.90;;;10.70;55.40;;;;;;2665286;51;20975;-87
2022/04/09 07:47:37;;;;;;;4.50;2.67;;;10.60;55.20;;;;;;2664518;52;20975;-86
2022/04/09 07:50:06;;;;;;;4.75;2.20;;;10.50;55.00;;;;;;2642404;51;20926;-86
2022/04/09 07:52:33;;;;;;;4.70;2.40;;;10.40;55.50;;;;;;2656170;51;21903;-86
2022/04/09 07:55:00;;;;;;;4.72;2.55;;;10.40;55.00;;;;;;2663858;52;20912;-87
2022/04/09 07:57:29;;;;;;;4.47;2.78;;;10.30;54.90;;;;;;2664100;52;20927;-86
2022/04/09 07:59:57;;;;;;;5.45;2.97;;;10.20;54.90;;;;;;2664992;52;20923;-86
2022/04/09 08:02:24;;;;;;;5.53;2.90;;;10.10;54.90;;;;;;2384355;52;20953;-87
2022/04/09 08:04:50;;;;;;;5.00;2.97;;;10.00;55.00;;;;;;2384570;52;21576;-87
2022/04/09 08:07:16;;;;;;;5.62;2.87;;;10.10;55.50;;;;;;2666210;52;21599;-86
2022/04/09 08:09:46;;;;;;;4.47;2.75;;;10.00;55.70;;;;;;2658681;51;20955;-85
2022/04/09 08:12:12;;;;;;;3.83;2.35;;;10.10;55.90;;;;;;2642396;51;20955;-87
2022/04/09 08:14:42;;;;;;;4.97;2.45;;;10.10;56.20;;;;;;2665734;52;20935;-87
2022/04/09 08:17:08;;;;;;;4.95;2.58;;;10.20;56.90;;;;;;2404798;53;20925;-87
2022/04/09 08:19:35;;;;;;;9.13;2.85;;;10.30;57.40;;;;;;2664684;52;21797;-87
2022/04/09 08:22:03;;;;;;;4.90;2.65;;;10.50;57.80;;;;;;2663775;52;21101;-87
2022/04/09 08:24:29;;;;;;;8.82;2.90;;;10.70;57.40;;;;;;2399657;52;21018;-85
2022/04/09 08:26:55;;;;;;;4.95;2.40;;;10.80;56.90;;;;;;2389782;52;21651;-86
2022/04/09 08:29:23;;;;;;;5.50;2.10;;;10.90;56.50;;;;;;2663923;52;21974;-86
2022/04/09 08:31:50;;;;;;;5.40;2.53;;;10.90;56.10;;;;;;2664916;52;20899;-85
2022/04/09 08:34:18;;;;;;;6.75;2.62;;;10.90;55.60;;;;;;2665332;52;21777;-87
2022/04/09 08:36:44;;;;;;;5.45;2.70;;;10.90;55.30;;;;;;2665669;52;20906;-85
2022/04/09 08:39:11;;;;;;;5.45;2.62;;;10.90;55.10;;;;;;2665076;52;21006;-82
2022/04/09 08:41:40;;;;;;;4.25;1.80;;;10.80;55.00;;;;;;2401521;53;22633;-83
2022/04/09 08:44:07;;;;;;;4.57;2.05;;;10.80;55.00;;;;;;2401212;52;20914;-82
2022/04/09 08:46:34;;;;;;;5.37;2.37;;;10.80;55.20;;;;;;2662761;52;20911;-87
2022/04/09 08:49:03;;;;;;;5.70;2.05;;;10.80;55.10;;;;;;2656025;51;21404;-87
2022/04/09 08:51:29;;;;;;;4.78;1.75;;;10.80;55.10;;;;;;2645426;51;20959;-87
2022/04/09 08:53:58;;;;;;;5.12;1.83;;;10.80;55.10;;;;;;2664810;52;20919;-86
2022/04/09 08:56:24;;;;;;;5.22;1.73;;;10.80;54.80;;;;;;2405805;53;20903;-86
2022/04/09 08:58:51;;;;;;;4.95;1.83;;;10.80;54.70;;;;;;2664945;52;20959;-87
2022/04/09 09:01:20;;;;;;;3.97;1.85;;;10.80;54.70;;;;;;2406696;53;20919;-87
2022/04/09 09:03:47;;;;;;;4.68;1.60;;;10.80;54.70;;;;;;2636193;52;20888;-86
2022/04/09 09:06:30;;;;;;;4.57;1.95;;;10.80;54.70;;;;;;2665397;52;20863;-87
2022/04/09 09:08:56;;;;;;;;;;;10.80;54.70;;;;;;2410887;52;20927;-86
2022/04/09 09:11:23;;;;;;;3.78;1.33;;;10.80;54.60;;;;;;2407577;52;20493;-86
2022/04/09 09:13:51;;;;;;;8.38;1.62;;;10.80;54.70;;;;;;2386620;52;21271;-87
2022/04/09 09:16:27;;;;;;;4.43;1.60;;;10.80;54.70;;;;;;2636728;52;21280;-86
2022/04/09 09:18:58;;;;;;;3.60;1.67;;;10.90;54.80;;;;;;2663976;52;21600;-85
2022/04/09 09:21:26;;;;;;;4.30;1.80;;;10.90;54.80;;;;;;2647270;51;21510;-86
2022/04/09 09:24:10;;;;;;;4.00;1.67;;;10.90;54.70;;;;;;2649451;51;20911;-86
2022/04/09 09:26:40;;;;;;;4.20;1.70;;;11.00;54.70;;;;;;2404568;53;20934;-85
2022/04/09 09:29:08;;;;;;;3.80;1.98;;;11.00;54.50;;;;;;2405084;52;20919;-84
2022/04/09 09:31:46;;;;;;;4.22;1.98;;;11.00;54.30;;;;;;2405465;52;20883;-86
2022/04/09 09:34:16;;;;;;;4.18;1.98;;;11.00;54.10;;;;;;2662969;52;20864;-87
2022/04/09 09:36:46;;;;;;;3.33;1.65;;;11.00;54.20;;;;;;2398596;52;20929;-85
2022/04/09 09:39:20;;;;;;;5.00;2.15;;;11.00;54.10;;;;;;2644681;51;20962;-86
2022/04/09 09:41:56;;;;;;;6.05;2.20;;;11.10;54.00;;;;;;2641968;51;20975;-85
2022/04/09 09:44:25;;;;;;;4.78;1.90;;;11.00;54.00;;;;;;2612309;52;21081;-86
2022/04/09 09:46:53;;;;;;;3.97;2.00;;;11.00;54.30;;;;;;2618663;52;21846;-85
2022/04/09 09:49:21;;;;;;;3.60;1.73;;;11.00;54.30;;;;;;2662164;52;20903;-86
2022/04/09 09:52:08;;;;;;;5.50;2.00;;;11.10;54.30;;;;;;2663302;52;20899;-85
2022/04/09 09:54:56;;;;;;;4.95;2.30;;;11.10;54.30;;;;;;2665352;52;20951;-87
2022/04/09 09:57:24;;;;;;;3.67;1.50;;;11.10;54.20;;;;;;2385643;53;20935;-87
2022/04/09 09:59:51;;;;;;;3.25;1.67;;;11.20;54.40;;;;;;2664837;52;20959;-86
2022/04/09 10:02:21;;;;;;;5.10;2.05;;;11.20;54.20;;;;;;2665255;52;20927;-87
2022/04/09 10:04:48;;;;;;;4.35;2.00;;;11.20;54.50;;;;;;2401620;52;20902;-87
2022/04/09 10:07:15;;;;;;;4.57;2.08;;;11.20;53.70;;;;;;2653072;51;20929;-86
2022/04/09 10:09:42;;;;;;;3.85;2.10;;;11.20;53.60;;;;;;2646446;51;20932;-87
2022/04/09 10:12:18;;;;;;;3.95;2.12;;;11.10;53.60;;;;;;2385736;52;20918;-87
2022/04/09 10:14:51;;;;;;;6.37;2.80;;;11.10;53.50;;;;;;2404947;52;21054;-86
2022/04/09 10:17:18;;;;;;;5.07;2.60;;;11.10;53.30;;;;;;2392224;52;22307;-86
2022/04/09 10:19:49;;;;;;;4.20;2.55;;;11.10;53.30;;;;;;2656212;51;21608;-86
2022/04/09 10:22:15;;;;;;;5.90;2.58;;;11.00;53.40;;;;;;2630825;51;21532;-86
2022/04/09 10:24:41;;;;;;;6.65;2.28;;;11.00;53.50;;;;;;2654270;52;21065;-86
2022/04/09 10:27:08;;;;;;;5.45;2.45;;;11.00;53.70;;;;;;2638875;51;20927;-86
2022/04/09 10:29:51;;;;;;;6.43;2.70;;;11.00;53.70;;;;;;2659153;52;20942;-85
2022/04/09 10:32:46;;;;;;;4.30;2.08;;;11.00;53.50;;;;;;2659041;52;21990;-85
2022/04/09 10:37:05;;;;;;;5.32;2.15;;;11.00;53.60;;;;;;2626475;51;20966;-86
2022/04/09 10:40:16;;;;;;;4.65;1.80;;;11.10;53.80;;;;;;2660830;52;20955;-85
2022/04/09 10:42:48;;;;;;;3.15;1.77;;;11.20;53.80;;;;;;2660105;52;20930;-84
2022/04/09 10:45:14;;;;;;;4.00;1.83;;;11.30;53.90;;;;;;2661191;52;20899;-84
2022/04/09 10:48:10;;;;;;;6.57;2.97;;;11.30;53.70;;;;;;2404632;52;20906;-86
2022/04/09 10:51:11;;;;;;;5.28;2.33;;;11.30;53.30;;;;;;2404169;52;20978;-86
2022/04/09 10:53:46;;;;;;;4.12;1.92;;;11.30;53.50;;;;;;2659329;52;20924;-86
2022/04/09 10:56:42;;;;;;;5.20;2.45;;;11.40;53.70;;;;;;2647753;51;21060;-86
2022/04/09 10:59:57;;;;;;;5.28;2.62;;;11.40;53.90;;;;;;2625068;52;20970;-87
2022/04/09 11:02:29;;;;;;;5.43;2.20;;;11.60;54.00;;;;;;2661544;52;21445;-86
2022/04/09 11:04:55;;;;;;;5.73;3.30;;;11.70;55.30;;;;;;2659491;52;21023;-86
2022/04/09 11:07:23;;;;;;;4.80;2.30;;;11.90;55.80;;;;;;2382272;52;20942;-87
2022/04/09 11:10:09;;;;;;;4.72;2.28;;;12.10;55.40;;;;;;2404457;52;20974;-85
2022/04/09 11:12:42;;;;;;;4.57;1.80;;;12.30;55.10;;;;;;2403880;53;20907;-86
2022/04/09 11:15:14;;;;;;;4.57;2.00;;;12.50;54.50;;;;;;2661844;52;21015;-86
2022/04/09 11:17:48;;;;;;;5.95;2.22;;;12.60;54.20;;;;;;2662357;52;20922;-86
2022/04/09 11:20:20;;;;;;;3.85;1.70;;;12.60;53.60;;;;;;2662079;52;20895;-86
2022/04/09 11:22:48;;;;;;;3.40;1.55;;;12.70;53.30;;;;;;2661245;52;21022;-86
2022/04/09 11:25:25;;;;;;;4.22;1.77;;;12.70;53.00;;;;;;2403679;53;21401;-86
2022/04/09 11:27:51;;;;;;;3.85;1.70;;;12.70;52.40;;;;;;2403227;53;20911;-85
2022/04/09 11:30:18;;;;;;;6.50;1.87;;;12.60;52.30;;;;;;2661650;52;21054;-85
2022/04/09 11:32:48;;;;;;;3.28;1.55;;;12.60;52.10;;;;;;2402697;52;20958;-86
2022/04/09 11:35:17;;;;;;;3.70;1.75;;;12.50;51.90;;;;;;2629945;52;21943;-85
2022/04/09 11:37:45;;;;;;;3.83;1.30;;;12.50;51.80;;;;;;2660524;52;20964;-85
2022/04/09 11:40:12;;;;;;;3.33;1.60;;;12.40;51.50;;;;;;2402647;53;21555;-85
2022/04/09 11:42:54;;;;;;;3.97;1.40;;;12.30;51.70;;;;;;2401957;53;21022;-85
2022/04/09 11:45:31;;;;;;;4.47;1.77;;;12.30;52.40;;;;;;2659719;52;21456;-85
2022/04/09 11:48:02;;;;;;;4.80;1.60;;;12.40;52.70;;;;;;2659911;52;22602;-85
2022/04/09 11:50:32;;;;;;;3.90;1.90;;;12.50;52.80;;;;;;2660667;52;20951;-84
2022/04/09 11:53:09;;;;;;;5.25;1.62;;;12.60;52.70;;;;;;2401217;52;20991;-84
2022/04/09 11:55:36;;;;;;;3.05;1.33;;;12.60;52.20;;;;;;2401016;52;21833;-84
2022/04/09 11:58:02;;;;;;;4.75;1.55;;;12.70;52.40;;;;;;2659080;52;20967;-86
2022/04/09 12:00:30;;;;;;;4.07;1.40;;;12.70;52.20;;;;;;2660028;52;20947;-86
2022/04/09 12:03:06;;;;;;;3.85;1.52;;;12.80;52.00;;;;;;2401197;52;20910;-85
2022/04/09 12:05:37;;;;;;;4.70;2.40;;;12.80;51.20;;;;;;2660641;52;20939;-86
2022/04/09 12:08:09;;;;;;;3.67;1.70;;;12.80;51.40;;;;;;2642545;51;20950;-84
2022/04/09 12:11:00;;;;;;;3.72;1.55;;;12.80;51.30;;;;;;2394157;52;21018;-84
2022/04/09 12:13:36;;;;;;;5.75;1.87;;;12.80;50.80;;;;;;2401542;53;20927;-84
2022/04/09 12:16:14;;;;;;;3.25;1.30;;;12.80;50.50;;;;;;2659443;52;20990;-86
2022/04/09 12:18:41;;;;;;;4.22;1.65;;;12.80;50.70;;;;;;2659668;52;20947;-85
2022/04/09 12:21:24;;;;;;;3.67;1.58;;;12.70;50.60;;;;;;2649723;51;21896;-86
2022/04/09 12:24:10;;;;;;;6.07;1.98;;;12.70;50.10;;;;;;2642259;51;21517;-86
2022/04/09 12:26:40;;;;;;;4.18;1.60;;;12.70;50.20;;;;;;2660248;52;20991;-85
2022/04/09 12:29:23;;;;;;;3.10;1.37;;;12.80;50.80;;;;;;2402191;52;20930;-87
2022/04/09 12:31:53;;;;;;;3.80;1.70;;;12.80;50.50;;;;;;2629546;52;20947;-86
2022/04/09 12:34:19;;;;;;;4.05;1.27;;;12.90;50.90;;;;;;2403269;53;22001;-87
2022/04/09 12:37:00;;;;;;;3.40;1.35;;;12.90;50.60;;;;;;2661496;52;20947;-85
2022/04/09 12:39:26;;;;;;;4.30;1.30;;;13.00;50.60;;;;;;2404025;52;21449;-85
2022/04/09 12:41:53;;;;;;;3.35;1.50;;;13.20;51.40;;;;;;2400982;52;21025;-85
2022/04/09 12:44:30;;;;;;;5.90;1.60;;;13.30;51.50;;;;;;2383688;52;20931;-84
2022/04/09 12:46:56;;;;;;;4.28;1.23;;;13.60;51.60;;;;;;2404572;52;20898;-81
2022/04/09 12:49:41;;;;;;;3.00;1.10;;;13.80;51.80;;;;;;2401143;53;20978;-82
2022/04/09 12:52:09;;;;;;;3.25;0.95;;;14.00;51.00;;;;;;2400577;53;20950;-82
2022/04/09 12:54:35;;;;;;;3.80;1.20;;;14.10;50.70;;;;;;2659513;52;22259;-82
2022/04/09 12:57:08;;;;;;;5.70;1.40;;;14.20;50.30;;;;;;2400271;52;21420;-83
2022/04/09 12:59:34;;;;;;;2.47;0.90;;;14.20;49.60;;;;;;2659878;52;21457;-82
2022/04/09 13:02:02;;;;;;;4.03;1.10;;;14.20;49.30;;;;;;2400592;53;20994;-82
2022/04/09 13:04:29;;;;;;;3.30;1.10;;;14.20;49.00;;;;;;2400411;53;21731;-82